Time;durP1;ratioP1;P1;durP2;ratioP2;P2;SDS_P1;SDS_P2;PMS_P1;PMS_P2;Temp;Humidity;BMP_temperature;BMP_pressure;BME280_temperature;BME280_humidity;BME280_pressure;Samples;Min_cycle;Max_cycle;Signal;HPM_P1;HPM_P2
2023/01/12 00:00:12;;;;;;;11.73;3.12;;;6.50;99.90;;;;;;465992;252;27546;-76
2023/01/12 00:02:13;;;;;;;17.77;3.87;;;6.60;99.90;;;;;;465978;252;27459;-77
2023/01/12 00:06:40;;;;;;;13.25;3.25;;;6.50;99.90;;;;;;465977;255;27503;-78
2023/01/12 00:08:41;;;;;;;20.30;4.35;;;6.60;99.90;;;;;;465962;252;27478;-77
2023/01/12 00:10:42;;;;;;;11.25;3.12;;;6.60;99.90;;;;;;465966;252;27440;-77
2023/01/12 00:12:43;;;;;;;13.25;3.58;;;6.60;99.90;;;;;;465963;252;27926;-77
2023/01/12 00:14:45;;;;;;;21.98;3.80;;;6.50;99.90;;;;;;465986;252;27953;-78
2023/01/12 00:16:46;;;;;;;15.68;3.40;;;6.50;99.90;;;;;;466019;252;27452;-77
2023/01/12 00:18:47;;;;;;;16.73;3.03;;;6.50;99.90;;;;;;465983;252;27588;-77
2023/01/12 00:20:48;;;;;;;20.30;3.20;;;6.50;99.90;;;;;;465973;252;27426;-76
2023/01/12 00:22:50;;;;;;;13.35;3.12;;;6.50;99.90;;;;;;466014;252;27523;-76
2023/01/12 00:24:51;;;;;;;19.02;3.30;;;6.50;99.90;;;;;;465994;252;28044;-81
2023/01/12 00:26:52;;;;;;;14.82;3.95;;;6.60;99.90;;;;;;466029;252;27426;-79
2023/01/12 00:28:54;;;;;;;16.75;3.37;;;6.50;99.90;;;;;;465989;252;27488;-79
2023/01/12 00:30:55;;;;;;;16.92;3.92;;;6.50;99.90;;;;;;465960;252;27526;-79
2023/01/12 00:32:56;;;;;;;11.12;3.40;;;6.50;99.90;;;;;;466003;255;27411;-80
2023/01/12 00:34:57;;;;;;;14.32;3.62;;;6.50;99.90;;;;;;466009;248;28006;-76
2023/01/12 00:36:59;;;;;;;19.33;3.42;;;6.50;99.90;;;;;;466018;252;27988;-80
2023/01/12 00:39:00;;;;;;;12.10;3.25;;;6.60;99.90;;;;;;465987;252;27554;-80
2023/01/12 00:41:01;;;;;;;15.50;3.78;;;6.60;99.90;;;;;;466015;252;27467;-80
2023/01/12 00:45:23;;;;;;;14.00;3.40;;;6.60;99.90;;;;;;465948;255;27485;-76
2023/01/12 00:47:23;;;;;;;21.23;4.28;;;6.60;99.90;;;;;;465978;252;27455;-77
2023/01/12 00:49:25;;;;;;;13.38;3.70;;;6.60;99.90;;;;;;465952;252;27881;-77
2023/01/12 00:51:26;;;;;;;21.30;4.35;;;6.60;99.90;;;;;;465970;252;27945;-78
2023/01/12 00:53:27;;;;;;;15.10;3.15;;;6.60;99.90;;;;;;465963;252;27497;-77
2023/01/12 00:55:28;;;;;;;15.68;3.22;;;6.60;99.90;;;;;;466008;252;27451;-80
2023/01/12 00:57:30;;;;;;;14.30;3.85;;;6.60;99.90;;;;;;465981;252;27490;-79
2023/01/12 00:59:31;;;;;;;22.10;5.12;;;6.60;99.90;;;;;;465987;252;27443;-80
2023/01/12 01:01:32;;;;;;;10.43;3.20;;;6.60;99.90;;;;;;465964;252;27974;-80
2023/01/12 01:03:33;;;;;;;18.87;4.20;;;6.60;99.90;;;;;;465949;252;27955;-80
2023/01/12 01:05:35;;;;;;;15.00;3.83;;;6.60;99.90;;;;;;465983;255;27570;-77
2023/01/12 01:07:36;;;;;;;17.15;3.90;;;6.60;99.90;;;;;;465964;252;27486;-80
2023/01/12 01:09:37;;;;;;;11.80;3.35;;;6.60;99.90;;;;;;465939;252;27410;-80
2023/01/12 01:11:39;;;;;;;16.25;3.65;;;6.60;99.90;;;;;;465952;252;27549;-78
2023/01/12 01:13:40;;;;;;;19.10;4.20;;;6.60;99.90;;;;;;465986;252;27950;-79
2023/01/12 01:15:41;;;;;;;14.40;2.83;;;6.60;99.90;;;;;;465971;252;27466;-77
2023/01/12 01:17:42;;;;;;;12.63;3.12;;;6.60;99.90;;;;;;465976;252;27469;-79
2023/01/12 01:19:44;;;;;;;13.80;3.65;;;6.60;99.90;;;;;;465949;251;27539;-79
2023/01/12 01:21:45;;;;;;;13.80;3.47;;;6.60;99.90;;;;;;465957;252;27450;-80
2023/01/12 01:23:46;;;;;;;19.92;3.92;;;6.60;99.90;;;;;;465996;252;28010;-78
2023/01/12 01:25:47;;;;;;;19.67;3.33;;;6.60;99.90;;;;;;465984;252;27885;-77
2023/01/12 01:27:49;;;;;;;23.90;3.65;;;6.60;99.90;;;;;;465945;252;27455;-80
2023/01/12 01:29:50;;;;;;;13.57;3.15;;;6.60;99.90;;;;;;465906;252;27414;-79
2023/01/12 01:31:51;;;;;;;15.07;3.35;;;6.70;99.90;;;;;;465985;252;27467;-79
2023/01/12 01:33:52;;;;;;;24.12;3.95;;;6.60;99.90;;;;;;466066;252;27558;-81
2023/01/12 01:35:54;;;;;;;18.90;4.13;;;6.70;99.90;;;;;;465971;252;27883;-79
2023/01/12 01:37:55;;;;;;;26.48;3.33;;;6.70;99.90;;;;;;465931;254;29419;-80
2023/01/12 01:39:56;;;;;;;11.45;3.12;;;6.70;99.90;;;;;;465963;252;27494;-80
2023/01/12 01:41:57;;;;;;;11.98;3.50;;;6.70;99.90;;;;;;465924;252;27431;-78
2023/01/12 01:43:59;;;;;;;9.82;3.20;;;6.70;99.90;;;;;;465927;252;27542;-80
2023/01/12 01:46:00;;;;;;;16.05;3.53;;;6.70;99.90;;;;;;465953;252;27478;-78
2023/01/12 01:48:01;;;;;;;10.88;4.07;;;6.70;99.90;;;;;;465842;252;27946;-79
2023/01/12 01:50:02;;;;;;;13.25;3.50;;;6.70;99.90;;;;;;465920;252;27542;-79
2023/01/12 01:52:04;;;;;;;12.60;4.05;;;6.70;99.90;;;;;;466002;252;27532;-80
2023/01/12 01:54:05;;;;;;;13.23;3.10;;;6.70;99.90;;;;;;465955;252;27446;-80
2023/01/12 01:56:06;;;;;;;16.98;3.72;;;6.70;99.90;;;;;;465975;252;27529;-79
2023/01/12 01:58:08;;;;;;;12.70;3.45;;;6.60;99.90;;;;;;465966;252;27474;-77
2023/01/12 02:00:09;;;;;;;18.50;4.45;;;6.70;99.90;;;;;;465987;252;28038;-76
2023/01/12 02:02:10;;;;;;;17.10;4.00;;;6.60;99.90;;;;;;465959;252;27424;-81
2023/01/12 02:04:11;;;;;;;21.00;4.03;;;6.60;99.90;;;;;;465973;252;27577;-80
2023/01/12 02:06:13;;;;;;;16.62;3.70;;;6.60;99.90;;;;;;465954;252;27483;-78
2023/01/12 02:08:14;;;;;;;13.68;3.40;;;6.60;99.90;;;;;;465967;252;27551;-76
2023/01/12 02:10:15;;;;;;;22.95;3.78;;;6.60;99.90;;;;;;465987;252;28037;-77
2023/01/12 02:16:56;;;;;;;21.15;3.70;;;6.60;99.90;;;;;;466001;255;27506;-77
2023/01/12 02:18:57;;;;;;;18.15;4.07;;;6.70;99.90;;;;;;465975;252;27495;-80
2023/01/12 02:20:58;;;;;;;20.80;3.80;;;6.60;99.90;;;;;;465980;255;27462;-76
2023/01/12 02:22:59;;;;;;;15.55;4.00;;;6.60;99.90;;;;;;465987;252;28069;-77
2023/01/12 02:25:01;;;;;;;17.27;3.90;;;6.60;99.90;;;;;;465991;252;27895;-78
2023/01/12 02:27:02;;;;;;;14.20;3.75;;;6.60;99.90;;;;;;465986;255;27481;-80
2023/01/12 02:29:03;;;;;;;19.05;4.47;;;6.70;99.90;;;;;;465989;252;27494;-76
2023/01/12 02:31:04;;;;;;;12.35;3.70;;;6.60;99.90;;;;;;465921;252;27828;-76
2023/01/12 02:33:06;;;;;;;13.52;3.20;;;6.60;99.90;;;;;;465969;252;27478;-80
2023/01/12 02:35:07;;;;;;;19.30;4.23;;;6.60;99.90;;;;;;465948;252;27909;-79
2023/01/12 02:37:09;;;;;;;17.55;3.83;;;6.60;99.90;;;;;;465940;252;29410;-76
2023/01/12 02:39:10;;;;;;;15.00;3.50;;;6.60;99.90;;;;;;465929;252;27499;-79
2023/01/12 02:41:11;;;;;;;17.07;3.77;;;6.60;99.90;;;;;;465959;252;27538;-79
2023/01/12 02:43:12;;;;;;;16.30;3.80;;;6.60;99.90;;;;;;465973;252;28959;-80
2023/01/12 02:45:13;;;;;;;18.75;4.10;;;6.60;99.90;;;;;;465935;252;27503;-77
2023/01/12 02:47:15;;;;;;;21.73;3.92;;;6.60;99.90;;;;;;465931;252;28060;-80
2023/01/12 02:49:16;;;;;;;21.67;3.92;;;6.60;99.90;;;;;;465879;252;27502;-80
2023/01/12 02:51:17;;;;;;;13.82;3.95;;;6.60;99.90;;;;;;465967;252;27431;-77
2023/01/12 02:53:18;;;;;;;11.85;3.20;;;6.60;99.90;;;;;;465955;252;27525;-80
2023/01/12 02:55:20;;;;;;;27.60;4.00;;;6.60;99.90;;;;;;465928;252;27419;-79
2023/01/12 02:57:21;;;;;;;13.27;3.33;;;6.60;99.90;;;;;;465964;252;28645;-80
2023/01/12 02:59:22;;;;;;;14.60;3.30;;;6.60;99.90;;;;;;465980;252;27943;-77
2023/01/12 03:01:23;;;;;;;11.57;3.10;;;6.60;99.90;;;;;;465991;252;29243;-77
2023/01/12 03:03:25;;;;;;;24.95;4.45;;;6.60;99.90;;;;;;465953;252;27502;-81
2023/01/12 03:05:26;;;;;;;16.17;4.07;;;6.60;99.90;;;;;;465893;252;27420;-80
2023/01/12 03:07:27;;;;;;;17.67;3.60;;;6.60;99.90;;;;;;465964;252;27551;-75
2023/01/12 03:09:28;;;;;;;14.23;3.62;;;6.60;99.90;;;;;;465983;252;27918;-76
2023/01/12 03:11:30;;;;;;;24.83;3.87;;;6.60;99.90;;;;;;465998;252;27870;-76
2023/01/12 03:13:31;;;;;;;20.60;3.80;;;6.60;99.90;;;;;;465949;252;27463;-81
2023/01/12 03:15:32;;;;;;;23.08;4.22;;;6.60;99.90;;;;;;465906;252;27486;-77
2023/01/12 03:17:33;;;;;;;14.98;3.75;;;6.60;99.90;;;;;;465978;252;27473;-77
2023/01/12 03:19:35;;;;;;;18.15;3.70;;;6.60;99.90;;;;;;465930;252;27498;-80
2023/01/12 03:21:36;;;;;;;8.65;3.37;;;6.60;99.90;;;;;;465971;252;27890;-80
2023/01/12 03:23:37;;;;;;;15.13;4.00;;;6.60;99.90;;;;;;465963;252;27975;-80
2023/01/12 03:25:39;;;;;;;13.57;3.72;;;6.60;99.90;;;;;;465941;252;27436;-79
2023/01/12 03:27:40;;;;;;;12.60;3.50;;;6.60;99.90;;;;;;465984;252;27445;-80
2023/01/12 03:29:41;;;;;;;23.05;4.25;;;6.60;99.90;;;;;;465961;252;27502;-79
2023/01/12 03:31:42;;;;;;;29.87;5.03;;;6.60;99.90;;;;;;465944;252;27463;-78
2023/01/12 03:33:44;;;;;;;24.87;4.30;;;6.60;99.90;;;;;;465949;252;27972;-79
2023/01/12 03:35:45;;;;;;;16.45;3.90;;;6.60;99.90;;;;;;465989;253;27411;-78
2023/01/12 03:37:46;;;;;;;24.23;4.97;;;6.60;99.90;;;;;;465937;252;27534;-80
2023/01/12 03:39:47;;;;;;;19.23;4.00;;;6.60;99.90;;;;;;465991;252;27475;-80
2023/01/12 03:41:49;;;;;;;16.92;3.75;;;6.60;99.90;;;;;;465974;248;27435;-80
2023/01/12 03:43:50;;;;;;;13.97;4.13;;;6.60;99.90;;;;;;465903;252;27974;-80
2023/01/12 03:45:51;;;;;;;24.83;4.40;;;6.60;99.90;;;;;;465976;252;29254;-78
2023/01/12 03:47:52;;;;;;;24.73;4.25;;;6.60;99.90;;;;;;465951;252;27498;-78
2023/01/12 03:49:54;;;;;;;12.77;3.72;;;6.60;99.90;;;;;;465974;252;27534;-78
2023/01/12 03:51:55;;;;;;;13.70;4.03;;;6.60;99.90;;;;;;465991;252;27510;-80
2023/01/12 03:53:56;;;;;;;13.30;3.20;;;6.60;99.90;;;;;;466013;252;27494;-77
2023/01/12 03:55:57;;;;;;;11.68;3.50;;;6.60;99.90;;;;;;465972;252;28825;-78
2023/01/12 03:57:59;;;;;;;9.00;2.80;;;6.60;99.90;;;;;;466049;252;27907;-79
2023/01/12 04:00:00;;;;;;;12.70;2.80;;;6.60;99.90;;;;;;466012;252;27453;-79
2023/01/12 04:02:01;;;;;;;15.52;3.80;;;6.70;99.90;;;;;;466024;252;27479;-80
2023/01/12 04:04:03;;;;;;;21.45;4.00;;;6.70;99.90;;;;;;465964;252;27482;-80
2023/01/12 04:06:04;;;;;;;13.55;3.72;;;6.60;99.90;;;;;;465999;252;27427;-80
2023/01/12 04:08:05;;;;;;;10.90;3.55;;;6.70;99.90;;;;;;466030;252;27886;-79
2023/01/12 04:10:06;;;;;;;14.95;3.85;;;6.70;99.90;;;;;;465927;255;28038;-80
2023/01/12 04:12:11;;;;;;;16.23;3.65;;;6.70;99.90;;;;;;465982;252;27419;-80
2023/01/12 04:14:12;;;;;;;14.40;3.53;;;6.60;99.90;;;;;;465994;252;27466;-78
2023/01/12 04:16:13;;;;;;;15.35;3.22;;;6.70;99.90;;;;;;465975;252;27446;-78
2023/01/12 04:18:14;;;;;;;23.67;3.90;;;6.70;99.90;;;;;;466017;252;28046;-80
2023/01/12 04:20:16;;;;;;;12.90;3.37;;;6.70;99.90;;;;;;465988;252;27503;-79
2023/01/12 04:24:36;;;;;;;15.30;3.40;;;6.70;99.90;;;;;;465946;255;27508;-78
2023/01/12 04:26:38;;;;;;;22.65;3.60;;;6.70;99.90;;;;;;465986;252;27939;-76
2023/01/12 04:28:39;;;;;;;20.92;4.37;;;6.70;99.90;;;;;;465937;252;27494;-79
2023/01/12 04:30:40;;;;;;;17.33;2.92;;;6.70;99.90;;;;;;465992;252;27422;-79
2023/01/12 04:32:41;;;;;;;18.58;4.00;;;6.70;99.90;;;;;;465962;252;27468;-80
2023/01/12 04:34:43;;;;;;;23.40;3.75;;;6.70;99.90;;;;;;466016;252;27477;-79
2023/01/12 04:36:44;;;;;;;12.52;3.30;;;6.70;99.90;;;;;;465987;252;27980;-76
2023/01/12 04:38:45;;;;;;;11.20;3.05;;;6.80;99.90;;;;;;465936;252;28055;-77
2023/01/12 04:40:46;;;;;;;18.12;4.05;;;6.80;99.90;;;;;;465928;252;27427;-80
2023/01/12 04:43:00;;;;;;;12.02;3.62;;;6.80;99.90;;;;;;465952;252;27597;-81
2023/01/12 04:45:01;;;;;;;14.90;3.50;;;6.80;99.90;;;;;;465783;252;27796;-78
2023/01/12 04:47:02;;;;;;;12.85;3.30;;;6.80;99.90;;;;;;465729;252;27541;-78
2023/01/12 04:49:03;;;;;;;20.85;3.50;;;6.80;99.90;;;;;;465969;252;27486;-78
2023/01/12 04:51:05;;;;;;;12.73;3.10;;;6.80;99.90;;;;;;465968;252;28768;-80
2023/01/12 04:53:06;;;;;;;12.40;3.90;;;6.70;99.90;;;;;;465988;252;27439;-77
2023/01/12 04:55:07;;;;;;;16.53;3.60;;;6.80;99.90;;;;;;465982;254;27474;-76
2023/01/12 04:57:08;;;;;;;16.15;4.10;;;6.70;99.90;;;;;;465893;252;28893;-80
2023/01/12 04:59:10;;;;;;;17.70;3.30;;;6.70;99.90;;;;;;465982;252;27560;-76
2023/01/12 05:01:11;;;;;;;15.20;3.50;;;6.70;99.90;;;;;;465922;255;27426;-79
2023/01/12 05:03:12;;;;;;;17.35;3.58;;;6.70;99.90;;;;;;466007;252;29451;-80
2023/01/12 05:05:14;;;;;;;13.90;3.15;;;6.70;99.90;;;;;;465990;252;27564;-80
2023/01/12 05:07:15;;;;;;;17.62;3.12;;;6.70;99.90;;;;;;465975;252;27458;-79
2023/01/12 05:11:36;;;;;;;15.33;3.10;;;6.70;99.90;;;;;;465912;255;28029;-78
2023/01/12 05:13:37;;;;;;;11.30;3.65;;;6.70;99.90;;;;;;465955;252;29264;-78
2023/01/12 05:15:38;;;;;;;21.67;4.03;;;6.70;99.90;;;;;;465961;252;27566;-79
2023/01/12 05:17:40;;;;;;;16.35;4.15;;;6.70;99.90;;;;;;466007;252;27457;-76
2023/01/12 05:19:41;;;;;;;18.15;4.45;;;6.70;99.90;;;;;;465969;252;27538;-77
2023/01/12 05:21:42;;;;;;;16.83;3.25;;;6.70;99.90;;;;;;465968;252;27934;-77
2023/01/12 05:23:43;;;;;;;19.33;3.90;;;6.70;99.90;;;;;;465980;252;27887;-76
2023/01/12 05:25:45;;;;;;;14.40;4.07;;;6.80;99.90;;;;;;465967;252;28419;-77
2023/01/12 05:27:46;;;;;;;15.07;3.25;;;6.80;99.90;;;;;;465972;252;27530;-78
2023/01/12 05:29:48;;;;;;;11.63;3.75;;;6.80;99.90;;;;;;466000;252;27507;-78
2023/01/12 05:31:48;;;;;;;17.95;3.30;;;6.70;99.90;;;;;;465963;252;27462;-80
2023/01/12 05:33:50;;;;;;;17.50;3.70;;;6.70;99.90;;;;;;465952;252;27431;-79
2023/01/12 05:35:51;;;;;;;18.60;3.70;;;6.70;99.90;;;;;;465973;252;28026;-78
2023/01/12 05:37:52;;;;;;;14.05;3.67;;;6.80;99.90;;;;;;466001;252;27959;-78
2023/01/12 05:39:53;;;;;;;12.60;3.10;;;6.80;99.90;;;;;;466021;252;27487;-78
2023/01/12 05:44:14;;;;;;;16.77;3.60;;;6.80;99.90;;;;;;465986;255;27422;-77
2023/01/12 05:46:15;;;;;;;19.10;3.45;;;6.80;99.90;;;;;;465993;252;27458;-79
2023/01/12 05:48:17;;;;;;;15.85;3.42;;;6.90;99.90;;;;;;465952;252;27502;-77
2023/01/12 05:50:18;;;;;;;15.13;3.17;;;6.90;99.90;;;;;;466002;252;27891;-80
2023/01/12 05:52:19;;;;;;;15.80;3.70;;;6.90;99.90;;;;;;465976;252;27483;-80
2023/01/12 05:54:20;;;;;;;15.27;3.40;;;6.80;99.90;;;;;;465950;252;28775;-79
2023/01/12 05:56:22;;;;;;;18.77;3.72;;;6.90;99.90;;;;;;465981;252;27506;-80
2023/01/12 05:58:23;;;;;;;19.33;4.15;;;6.90;99.90;;;;;;465983;252;27592;-81
2023/01/12 06:00:24;;;;;;;14.45;3.37;;;6.90;99.90;;;;;;465970;255;27408;-80
2023/01/12 06:02:25;;;;;;;14.20;2.53;;;6.80;99.90;;;;;;465974;252;27932;-80
2023/01/12 06:04:27;;;;;;;12.85;2.80;;;6.80;99.90;;;;;;465974;252;27427;-79
2023/01/12 06:06:29;;;;;;;18.05;3.15;;;6.80;99.90;;;;;;465967;252;27503;-80
2023/01/12 06:08:29;;;;;;;17.15;3.00;;;6.80;99.90;;;;;;465880;255;27543;-80
2023/01/12 06:10:33;;;;;;;11.48;2.53;;;6.80;99.90;;;;;;465919;252;27414;-80
2023/01/12 06:14:51;;;;;;;11.93;2.50;;;6.80;99.90;;;;;;465950;255;27466;-81
2023/01/12 06:16:52;;;;;;;12.77;2.70;;;6.90;99.90;;;;;;465994;252;27546;-80
2023/01/12 06:18:54;;;;;;;12.73;2.80;;;6.90;99.90;;;;;;465978;252;27953;-79
2023/01/12 06:20:55;;;;;;;7.97;2.35;;;6.90;99.90;;;;;;465967;252;27439;-79
2023/01/12 06:22:56;;;;;;;12.80;2.95;;;6.90;99.90;;;;;;465967;252;27453;-80
2023/01/12 06:24:57;;;;;;;12.35;3.05;;;6.90;99.90;;;;;;465956;252;27427;-78
2023/01/12 06:26:59;;;;;;;13.30;2.97;;;6.90;99.90;;;;;;465969;252;27435;-80
2023/01/12 06:29:00;;;;;;;12.52;2.75;;;6.90;99.90;;;;;;465989;252;27460;-79
2023/01/12 06:31:01;;;;;;;12.43;3.12;;;6.90;99.90;;;;;;465951;252;27887;-76
2023/01/12 06:33:02;;;;;;;8.35;2.53;;;6.80;99.90;;;;;;465942;252;27546;-76
2023/01/12 06:35:04;;;;;;;13.48;3.10;;;6.90;99.90;;;;;;465974;252;27526;-77
2023/01/12 06:37:07;;;;;;;13.88;3.33;;;6.90;99.90;;;;;;465980;252;27506;-79
2023/01/12 06:39:06;;;;;;;15.90;3.87;;;6.80;99.90;;;;;;465901;252;27515;-80
2023/01/12 06:42:27;;;;;;;9.77;2.45;;;6.90;99.90;;;;;;465968;252;27955;-80
2023/01/12 06:43:09;;;;;;;13.40;2.95;;;6.90;99.90;;;;;;463933;255;27969;-80
2023/01/12 06:45:11;;;;;;;11.52;3.20;;;6.90;99.90;;;;;;465964;252;27463;-80
2023/01/12 06:47:12;;;;;;;10.80;2.83;;;6.90;99.90;;;;;;465969;252;27471;-79
2023/01/12 06:49:15;;;;;;;9.38;2.95;;;6.90;99.90;;;;;;465987;252;28037;-79
2023/01/12 06:51:15;;;;;;;9.80;2.87;;;6.90;99.90;;;;;;465925;255;27970;-80
2023/01/12 06:53:16;;;;;;;15.80;2.90;;;6.80;99.90;;;;;;465988;252;28870;-80
2023/01/12 06:55:17;;;;;;;17.55;2.87;;;6.80;99.90;;;;;;465977;252;27541;-80
2023/01/12 06:57:19;;;;;;;15.70;2.65;;;6.70;99.90;;;;;;466035;252;27804;-79
2023/01/12 06:59:20;;;;;;;13.90;2.75;;;6.80;99.90;;;;;;466011;252;27463;-78
2023/01/12 07:01:23;;;;;;;11.38;2.60;;;6.80;99.90;;;;;;465965;252;27514;-77
2023/01/12 07:03:22;;;;;;;16.67;3.30;;;6.70;99.90;;;;;;465783;255;27955;-75
2023/01/12 07:05:24;;;;;;;10.07;2.42;;;6.70;99.90;;;;;;465928;252;27450;-78
2023/01/12 07:07:25;;;;;;;10.85;2.40;;;6.70;99.90;;;;;;465980;252;27455;-81
2023/01/12 07:09:26;;;;;;;12.37;2.80;;;6.70;99.90;;;;;;465957;252;27419;-80
2023/01/12 07:11:27;;;;;;;6.40;2.10;;;6.70;99.90;;;;;;465940;252;27454;-78
2023/01/12 07:13:29;;;;;;;11.50;2.42;;;6.70;99.90;;;;;;465930;252;28521;-80
2023/01/12 07:15:30;;;;;;;10.15;2.72;;;6.70;99.90;;;;;;465948;251;27918;-79
2023/01/12 07:17:31;;;;;;;11.27;3.15;;;6.70;99.90;;;;;;465978;252;27439;-80
2023/01/12 07:19:32;;;;;;;9.43;2.53;;;6.70;99.90;;;;;;465938;252;27455;-79
2023/01/12 07:21:34;;;;;;;9.20;2.40;;;6.70;99.90;;;;;;465954;252;27471;-80
2023/01/12 07:23:36;;;;;;;6.95;2.28;;;6.70;99.90;;;;;;465970;252;27522;-79
2023/01/12 07:25:36;;;;;;;12.18;2.17;;;6.70;99.90;;;;;;465917;252;27876;-78
2023/01/12 07:27:37;;;;;;;11.48;2.95;;;6.70;99.90;;;;;;465982;252;28073;-78
2023/01/12 07:29:39;;;;;;;4.28;1.60;;;6.70;99.90;;;;;;465980;252;27498;-79
2023/01/12 07:31:40;;;;;;;13.98;2.60;;;6.70;99.90;;;;;;465945;252;27478;-78
2023/01/12 07:33:41;;;;;;;3.65;1.80;;;6.70;99.90;;;;;;465965;255;27872;-82
2023/01/12 07:35:43;;;;;;;8.95;2.12;;;6.70;99.90;;;;;;466004;252;27489;-80
2023/01/12 07:37:44;;;;;;;8.80;2.20;;;6.70;99.90;;;;;;465993;252;27557;-80
2023/01/12 07:39:45;;;;;;;11.38;2.03;;;6.70;99.90;;;;;;465949;252;28053;-79
2023/01/12 07:44:06;;;;;;;8.45;2.25;;;6.70;99.90;;;;;;465958;255;27942;-79
2023/01/12 07:46:07;;;;;;;6.25;1.70;;;6.70;99.90;;;;;;466008;252;27423;-80
2023/01/12 07:48:08;;;;;;;6.25;1.80;;;6.70;99.90;;;;;;465956;252;27553;-79
2023/01/12 07:50:10;;;;;;;7.87;1.95;;;6.60;99.90;;;;;;465959;252;27439;-80
2023/01/12 07:52:11;;;;;;;6.43;2.28;;;6.70;99.90;;;;;;465979;252;27498;-81
2023/01/12 07:54:12;;;;;;;4.28;1.60;;;6.60;99.90;;;;;;465957;252;27598;-77
2023/01/12 07:56:15;;;;;;;3.40;1.80;;;6.70;99.90;;;;;;465993;252;27914;-81
2023/01/12 07:58:15;;;;;;;11.05;1.90;;;6.70;99.90;;;;;;465899;255;27937;-79
2023/01/12 08:00:16;;;;;;;7.57;2.03;;;6.70;99.90;;;;;;465877;252;27447;-79
2023/01/12 08:02:18;;;;;;;8.00;2.37;;;6.70;99.90;;;;;;465999;252;27526;-81
2023/01/12 08:04:18;;;;;;;7.65;2.30;;;6.70;99.90;;;;;;465990;252;27474;-80
2023/01/12 08:06:20;;;;;;;7.32;2.55;;;6.80;99.90;;;;;;465981;252;27415;-78
2023/01/12 08:08:21;;;;;;;4.80;2.67;;;6.70;99.90;;;;;;465940;252;27491;-79
2023/01/12 08:10:22;;;;;;;8.55;2.10;;;6.80;99.90;;;;;;465980;252;28777;-77
2023/01/12 08:12:23;;;;;;;9.38;1.92;;;6.70;99.90;;;;;;465994;252;27949;-80
2023/01/12 08:14:25;;;;;;;6.87;1.80;;;6.80;99.90;;;;;;465972;252;27466;-78
2023/01/12 08:16:26;;;;;;;2.30;1.65;;;6.80;99.90;;;;;;465978;252;27415;-79
2023/01/12 08:18:27;;;;;;;4.60;1.62;;;6.80;99.90;;;;;;465962;252;27470;-80
2023/01/12 08:20:28;;;;;;;7.53;1.65;;;6.80;99.90;;;;;;465976;252;27456;-80
2023/01/12 08:22:30;;;;;;;2.87;1.73;;;6.80;99.90;;;;;;465993;252;27451;-79
2023/01/12 08:24:31;;;;;;;6.07;2.10;;;6.80;99.90;;;;;;466007;252;28015;-80
2023/01/12 08:26:32;;;;;;;6.22;2.10;;;6.80;99.90;;;;;;466016;252;27419;-79
2023/01/12 08:28:33;;;;;;;4.85;2.00;;;6.80;99.90;;;;;;465995;252;27450;-81
2023/01/12 08:30:35;;;;;;;6.32;1.83;;;6.80;99.90;;;;;;466002;252;27427;-80
2023/01/12 08:32:36;;;;;;;10.75;2.42;;;6.80;99.90;;;;;;466033;252;27498;-80
2023/01/12 08:34:37;;;;;;;6.65;2.80;;;6.80;99.90;;;;;;465988;252;27443;-80
2023/01/12 08:36:38;;;;;;;6.68;2.28;;;6.80;99.90;;;;;;465970;252;27900;-79
2023/01/12 08:38:40;;;;;;;14.68;2.67;;;6.70;99.90;;;;;;465950;252;27945;-78
2023/01/12 08:43:00;;;;;;;9.98;2.65;;;6.80;99.90;;;;;;465986;255;27486;-78
2023/01/12 08:45:02;;;;;;;9.25;2.70;;;6.80;99.90;;;;;;465989;252;27578;-79
2023/01/12 08:47:03;;;;;;;9.85;2.83;;;6.90;99.90;;;;;;465972;252;27997;-75
2023/01/12 08:49:04;;;;;;;16.45;4.25;;;6.90;99.90;;;;;;465979;252;29250;-76
2023/01/12 08:51:06;;;;;;;17.52;3.12;;;6.90;99.90;;;;;;465949;252;27522;-77
2023/01/12 08:53:07;;;;;;;11.15;2.37;;;6.80;99.90;;;;;;465926;255;27507;-77
2023/01/12 08:55:10;;;;;;;10.23;2.67;;;6.90;99.90;;;;;;465982;254;27467;-75
2023/01/12 08:57:09;;;;;;;13.38;3.03;;;6.90;99.90;;;;;;465891;252;27870;-80
2023/01/12 08:59:14;;;;;;;19.23;3.03;;;6.90;99.90;;;;;;465972;252;28044;-78
2023/01/12 09:01:12;;;;;;;15.50;3.47;;;6.90;99.90;;;;;;465633;255;28520;-77
2023/01/12 09:03:13;;;;;;;15.63;2.50;;;7.00;99.90;;;;;;465994;252;27562;-77
2023/01/12 09:05:15;;;;;;;13.50;3.20;;;6.90;99.90;;;;;;465998;252;27494;-77
2023/01/12 09:07:16;;;;;;;7.03;2.97;;;6.90;99.90;;;;;;465928;252;27446;-76
2023/01/12 09:09:18;;;;;;;18.23;3.28;;;7.00;99.90;;;;;;465964;252;28034;-81
2023/01/12 09:11:18;;;;;;;11.45;3.30;;;7.00;99.90;;;;;;465921;252;27996;-79
2023/01/12 09:13:19;;;;;;;16.85;2.90;;;7.00;99.90;;;;;;465992;252;27502;-80
2023/01/12 09:15:21;;;;;;;12.35;3.42;;;7.00;99.90;;;;;;465951;252;27470;-76
2023/01/12 09:17:22;;;;;;;6.82;2.85;;;7.00;99.90;;;;;;465974;252;27419;-77
2023/01/12 09:19:23;;;;;;;15.65;3.30;;;6.90;99.90;;;;;;465950;252;27566;-80
2023/01/12 09:21:24;;;;;;;16.95;3.25;;;7.00;99.90;;;;;;465952;252;27878;-80
2023/01/12 09:23:26;;;;;;;10.60;3.17;;;6.90;99.90;;;;;;465936;252;27538;-80
2023/01/12 09:25:27;;;;;;;16.60;3.00;;;7.00;99.90;;;;;;465998;252;27454;-81
2023/01/12 09:27:28;;;;;;;6.90;2.85;;;6.90;99.90;;;;;;465980;252;27491;-80
2023/01/12 09:29:29;;;;;;;8.60;2.70;;;6.90;99.90;;;;;;465995;252;27584;-80
2023/01/12 09:31:31;;;;;;;8.90;2.58;;;7.00;99.90;;;;;;465999;252;27886;-80
2023/01/12 09:33:32;;;;;;;15.75;3.47;;;7.00;99.90;;;;;;465978;252;27953;-80
2023/01/12 09:35:33;;;;;;;11.95;2.83;;;7.00;99.90;;;;;;466022;252;27485;-80
2023/01/12 09:37:34;;;;;;;9.85;2.75;;;7.00;99.90;;;;;;466001;252;27426;-80
2023/01/12 09:39:36;;;;;;;9.88;2.60;;;7.00;99.90;;;;;;466015;252;27491;-80
2023/01/12 09:48:35;;;;;;;10.63;2.08;;;7.00;99.90;;;;;;465942;255;27493;-77
2023/01/12 09:50:37;;;;;;;12.40;2.72;;;7.10;99.90;;;;;;465979;252;27518;-77
2023/01/12 09:52:38;;;;;;;7.82;2.10;;;7.00;99.90;;;;;;465970;252;27964;-81
2023/01/12 09:54:39;;;;;;;8.63;2.85;;;7.10;99.90;;;;;;465963;252;27422;-80
2023/01/12 09:56:40;;;;;;;4.45;2.20;;;7.10;99.90;;;;;;465945;252;27462;-80
2023/01/12 09:58:42;;;;;;;6.78;2.40;;;7.10;99.90;;;;;;465970;252;27484;-80
2023/01/12 10:00:43;;;;;;;7.37;1.80;;;7.20;99.90;;;;;;465965;252;27474;-79
2023/01/12 10:02:44;;;;;;;6.90;2.00;;;7.20;99.90;;;;;;465989;252;27570;-80
2023/01/12 10:04:45;;;;;;;4.90;2.10;;;7.10;99.90;;;;;;465980;252;27627;-79
2023/01/12 10:06:47;;;;;;;4.33;1.80;;;7.10;99.90;;;;;;465962;252;27957;-81
2023/01/12 10:08:48;;;;;;;4.13;1.80;;;7.20;99.90;;;;;;465953;252;28475;-79
2023/01/12 10:10:49;;;;;;;6.22;1.90;;;7.20;99.90;;;;;;465948;252;28382;-79
2023/01/12 10:12:50;;;;;;;4.30;1.85;;;7.20;99.90;;;;;;465869;252;27562;-79
2023/01/12 10:14:52;;;;;;;7.67;1.93;;;7.20;99.90;;;;;;465929;252;27416;-80
2023/01/12 10:16:53;;;;;;;7.55;2.08;;;7.20;99.90;;;;;;465961;252;28632;-80
2023/01/12 10:18:54;;;;;;;3.30;1.80;;;7.20;99.90;;;;;;465967;252;27422;-80
2023/01/12 10:20:56;;;;;;;5.53;1.85;;;7.20;99.90;;;;;;465948;252;28506;-79
2023/01/12 10:22:57;;;;;;;3.35;1.65;;;7.20;99.90;;;;;;465983;252;27993;-79
2023/01/12 10:24:58;;;;;;;5.18;1.77;;;7.20;99.90;;;;;;465981;252;27897;-80
2023/01/12 10:26:59;;;;;;;5.70;1.77;;;7.20;99.90;;;;;;465960;254;27530;-80
2023/01/12 10:29:01;;;;;;;4.60;1.50;;;7.20;99.90;;;;;;465926;253;28773;-80
2023/01/12 10:31:02;;;;;;;8.27;2.00;;;7.10;99.90;;;;;;465946;252;27455;-81
2023/01/12 10:33:03;;;;;;;5.53;1.52;;;7.20;99.90;;;;;;465973;252;28895;-80
2023/01/12 10:35:04;;;;;;;4.40;1.50;;;7.20;99.90;;;;;;465980;252;27411;-79
2023/01/12 10:37:09;;;;;;;2.50;1.67;;;7.20;99.90;;;;;;465973;255;27795;-80
2023/01/12 10:39:07;;;;;;;5.25;1.87;;;7.20;99.90;;;;;;465716;255;28783;-80
2023/01/12 10:41:08;;;;;;;3.63;2.00;;;7.20;99.90;;;;;;465989;252;27886;-80
2023/01/12 10:43:18;;;;;;;7.22;2.00;;;7.20;99.90;;;;;;466002;252;29134;-81
2023/01/12 10:45:20;;;;;;;5.20;1.98;;;7.20;99.90;;;;;;466006;252;27491;-78
2023/01/12 10:47:21;;;;;;;4.87;1.97;;;7.20;99.90;;;;;;465961;252;27872;-79
2023/01/12 10:49:22;;;;;;;7.60;2.30;;;7.20;99.90;;;;;;465943;252;28953;-80
2023/01/12 10:51:23;;;;;;;6.07;1.90;;;7.30;99.90;;;;;;466012;252;28013;-80
2023/01/12 10:53:26;;;;;;;5.20;1.53;;;7.30;99.90;;;;;;466004;252;28793;-81
2023/01/12 10:55:26;;;;;;;6.40;2.07;;;7.30;99.90;;;;;;465886;255;28821;-81
2023/01/12 10:57:27;;;;;;;7.13;1.70;;;7.20;99.90;;;;;;465912;252;28474;-81
2023/01/12 10:59:30;;;;;;;7.62;2.08;;;7.20;99.90;;;;;;465968;252;28164;-80
2023/01/12 11:01:30;;;;;;;5.23;1.80;;;7.20;99.90;;;;;;465936;252;27947;-79
2023/01/12 11:03:31;;;;;;;2.50;1.40;;;7.20;99.90;;;;;;465977;252;28781;-80